Terminal Aerodrome Forecast
Issued by NWS

Home | Current Version | Previous Version | Graphics & Text | Print | Product List | Glossary On
Versions: 1 2 3 4 5 6 7 8 9 10 11 12 13 14 15 16 17
000
FTUS43 KBIS 142300
TAFJMS
TAF
KJMS 142336Z 1500/1524 33014KT 3SM -FZDZ BR OVC005
     FM150100 34015KT 1SM -FZDZ BR OVC003
     FM151000 35022G29KT 4SM BR OVC007
     FM151800 35024G32KT P6SM OVC015=

USA.gov is the U.S. government's official web portal to all federal, state and local government web resources and services.